sensor_id;sensor_type;location;lat;lon;timestamp;temperature;humidity
53844;DHT22;39744;53.314;5.710;2023-04-24T00:01:55;10.50;99.90
53844;DHT22;39744;53.314;5.710;2023-04-24T00:04:21;10.80;99.90
53844;DHT22;39744;53.314;5.710;2023-04-24T00:06:51;10.40;99.90
53844;DHT22;39744;53.314;5.710;2023-04-24T00:09:19;10.10;99.90
53844;DHT22;39744;53.314;5.710;2023-04-24T00:11:44;11.10;99.90
53844;DHT22;39744;53.314;5.710;2023-04-24T00:14:10;10.00;99.90
53844;DHT22;39744;53.314;5.710;2023-04-24T00:16:36;10.10;99.90
53844;DHT22;39744;53.314;5.710;2023-04-24T00:19:02;10.30;99.90
53844;DHT22;39744;53.314;5.710;2023-04-24T00:21:27;10.70;99.90
53844;DHT22;39744;53.314;5.710;2023-04-24T00:23:53;10.90;99.90
53844;DHT22;39744;53.314;5.710;2023-04-24T00:26:19;11.10;99.90
53844;DHT22;39744;53.314;5.710;2023-04-24T00:28:44;9.80;99.90
53844;DHT22;39744;53.314;5.710;2023-04-24T00:31:10;10.60;99.90
53844;DHT22;39744;53.314;5.710;2023-04-24T00:33:35;11.10;99.90
53844;DHT22;39744;53.314;5.710;2023-04-24T00:36:01;11.10;99.90
53844;DHT22;39744;53.314;5.710;2023-04-24T00:38:27;10.30;99.90
53844;DHT22;39744;53.314;5.710;2023-04-24T00:40:53;10.60;99.90
53844;DHT22;39744;53.314;5.710;2023-04-24T00:43:19;10.80;99.90
53844;DHT22;39744;53.314;5.710;2023-04-24T00:45:45;9.90;99.90
53844;DHT22;39744;53.314;5.710;2023-04-24T00:48:11;10.50;99.90
53844;DHT22;39744;53.314;5.710;2023-04-24T00:50:38;10.00;99.90
53844;DHT22;39744;53.314;5.710;2023-04-24T00:53:04;11.10;99.90
53844;DHT22;39744;53.314;5.710;2023-04-24T00:55:30;10.10;99.90
53844;DHT22;39744;53.314;5.710;2023-04-24T00:57:57;9.90;99.90
53844;DHT22;39744;53.314;5.710;2023-04-24T01:00:22;9.80;99.90
53844;DHT22;39744;53.314;5.710;2023-04-24T01:02:49;9.80;99.90
53844;DHT22;39744;53.314;5.710;2023-04-24T01:05:15;10.60;99.90
53844;DHT22;39744;53.314;5.710;2023-04-24T01:07:44;10.80;99.90
53844;DHT22;39744;53.314;5.710;2023-04-24T01:10:11;11.00;99.90
53844;DHT22;39744;53.314;5.710;2023-04-24T01:12:38;9.90;99.90
53844;DHT22;39744;53.314;5.710;2023-04-24T01:15:04;10.90;99.90
53844;DHT22;39744;53.314;5.710;2023-04-24T01:17:32;10.60;99.90
53844;DHT22;39744;53.314;5.710;2023-04-24T01:19:58;10.60;99.90
53844;DHT22;39744;53.314;5.710;2023-04-24T01:22:25;9.90;99.90
53844;DHT22;39744;53.314;5.710;2023-04-24T01:24:52;10.10;99.90
53844;DHT22;39744;53.314;5.710;2023-04-24T01:27:19;10.60;99.90
53844;DHT22;39744;53.314;5.710;2023-04-24T01:29:46;10.50;99.90
53844;DHT22;39744;53.314;5.710;2023-04-24T01:32:14;9.80;99.90
53844;DHT22;39744;53.314;5.710;2023-04-24T01:34:40;9.90;99.90
53844;DHT22;39744;53.314;5.710;2023-04-24T01:37:06;10.50;99.90
53844;DHT22;39744;53.314;5.710;2023-04-24T01:39:32;10.30;99.90
53844;DHT22;39744;53.314;5.710;2023-04-24T01:41:59;10.60;99.90
53844;DHT22;39744;53.314;5.710;2023-04-24T01:44:25;9.60;99.90
53844;DHT22;39744;53.314;5.710;2023-04-24T01:46:51;10.50;99.90
53844;DHT22;39744;53.314;5.710;2023-04-24T01:49:19;9.90;99.90
53844;DHT22;39744;53.314;5.710;2023-04-24T01:51:45;10.20;99.90
53844;DHT22;39744;53.314;5.710;2023-04-24T01:54:11;10.10;99.90
53844;DHT22;39744;53.314;5.710;2023-04-24T01:56:41;9.90;99.90
53844;DHT22;39744;53.314;5.710;2023-04-24T01:59:11;9.80;99.90
53844;DHT22;39744;53.314;5.710;2023-04-24T02:01:37;10.10;99.90
53844;DHT22;39744;53.314;5.710;2023-04-24T02:04:04;9.90;99.90
53844;DHT22;39744;53.314;5.710;2023-04-24T02:06:30;9.90;99.90
53844;DHT22;39744;53.314;5.710;2023-04-24T02:09:00;10.20;99.90
53844;DHT22;39744;53.314;5.710;2023-04-24T02:11:26;9.60;99.90
53844;DHT22;39744;53.314;5.710;2023-04-24T02:13:52;9.50;99.90
53844;DHT22;39744;53.314;5.710;2023-04-24T02:16:18;10.50;99.90
53844;DHT22;39744;53.314;5.710;2023-04-24T02:18:44;10.00;99.90
53844;DHT22;39744;53.314;5.710;2023-04-24T02:21:09;10.10;99.90
53844;DHT22;39744;53.314;5.710;2023-04-24T02:23:35;10.20;99.90
53844;DHT22;39744;53.314;5.710;2023-04-24T02:26:01;10.50;99.90
53844;DHT22;39744;53.314;5.710;2023-04-24T02:28:26;9.50;99.90
53844;DHT22;39744;53.314;5.710;2023-04-24T02:30:52;10.30;99.90
53844;DHT22;39744;53.314;5.710;2023-04-24T02:33:18;10.40;99.90
53844;DHT22;39744;53.314;5.710;2023-04-24T02:35:43;9.50;99.90
53844;DHT22;39744;53.314;5.710;2023-04-24T02:38:09;9.60;99.90
53844;DHT22;39744;53.314;5.710;2023-04-24T02:40:35;9.80;99.90
53844;DHT22;39744;53.314;5.710;2023-04-24T02:43:00;10.30;99.90
53844;DHT22;39744;53.314;5.710;2023-04-24T02:45:26;9.70;99.90
53844;DHT22;39744;53.314;5.710;2023-04-24T02:47:52;10.20;99.90
53844;DHT22;39744;53.314;5.710;2023-04-24T02:50:17;10.30;99.90
53844;DHT22;39744;53.314;5.710;2023-04-24T02:52:43;10.00;99.90
53844;DHT22;39744;53.314;5.710;2023-04-24T02:55:09;9.70;99.90
53844;DHT22;39744;53.314;5.710;2023-04-24T02:57:35;9.60;99.90
53844;DHT22;39744;53.314;5.710;2023-04-24T03:00:00;10.50;99.90
53844;DHT22;39744;53.314;5.710;2023-04-24T03:02:26;10.50;99.90
53844;DHT22;39744;53.314;5.710;2023-04-24T03:04:52;9.50;99.90
53844;DHT22;39744;53.314;5.710;2023-04-24T03:07:17;9.70;99.90
53844;DHT22;39744;53.314;5.710;2023-04-24T03:09:46;10.10;99.90
53844;DHT22;39744;53.314;5.710;2023-04-24T03:12:12;10.40;99.90
53844;DHT22;39744;53.314;5.710;2023-04-24T03:14:38;9.80;99.90
53844;DHT22;39744;53.314;5.710;2023-04-24T03:17:04;9.90;99.90
53844;DHT22;39744;53.314;5.710;2023-04-24T03:19:29;9.60;99.90
53844;DHT22;39744;53.314;5.710;2023-04-24T03:21:55;9.50;99.90
53844;DHT22;39744;53.314;5.710;2023-04-24T03:24:21;10.40;99.90
53844;DHT22;39744;53.314;5.710;2023-04-24T03:26:47;9.60;99.90
53844;DHT22;39744;53.314;5.710;2023-04-24T03:29:13;10.30;99.90
53844;DHT22;39744;53.314;5.710;2023-04-24T03:31:39;9.60;99.90
53844;DHT22;39744;53.314;5.710;2023-04-24T03:34:04;10.20;99.90
53844;DHT22;39744;53.314;5.710;2023-04-24T03:36:30;9.40;99.90
53844;DHT22;39744;53.314;5.710;2023-04-24T03:38:56;10.10;99.90
53844;DHT22;39744;53.314;5.710;2023-04-24T03:41:22;10.10;99.90
53844;DHT22;39744;53.314;5.710;2023-04-24T03:43:48;9.60;99.90
53844;DHT22;39744;53.314;5.710;2023-04-24T03:46:13;9.60;99.90
53844;DHT22;39744;53.314;5.710;2023-04-24T03:48:39;9.40;99.90
53844;DHT22;39744;53.314;5.710;2023-04-24T03:51:05;10.10;99.90
53844;DHT22;39744;53.314;5.710;2023-04-24T03:53:30;9.70;99.90
53844;DHT22;39744;53.314;5.710;2023-04-24T03:55:56;9.50;99.90
53844;DHT22;39744;53.314;5.710;2023-04-24T03:58:22;9.40;99.90
53844;DHT22;39744;53.314;5.710;2023-04-24T04:00:47;9.40;99.90
53844;DHT22;39744;53.314;5.710;2023-04-24T04:03:13;10.00;99.90
53844;DHT22;39744;53.314;5.710;2023-04-24T04:05:40;9.90;99.90
53844;DHT22;39744;53.314;5.710;2023-04-24T04:08:05;10.10;99.90
53844;DHT22;39744;53.314;5.710;2023-04-24T04:10:31;9.50;99.90
53844;DHT22;39744;53.314;5.710;2023-04-24T04:12:57;10.20;99.90
53844;DHT22;39744;53.314;5.710;2023-04-24T04:15:23;9.30;99.90
53844;DHT22;39744;53.314;5.710;2023-04-24T04:17:49;9.40;99.90
53844;DHT22;39744;53.314;5.710;2023-04-24T04:20:14;10.10;99.90
53844;DHT22;39744;53.314;5.710;2023-04-24T04:22:40;9.40;99.90
53844;DHT22;39744;53.314;5.710;2023-04-24T04:25:06;9.60;99.90
53844;DHT22;39744;53.314;5.710;2023-04-24T04:27:32;9.70;99.90
53844;DHT22;39744;53.314;5.710;2023-04-24T04:30:02;9.30;99.90
53844;DHT22;39744;53.314;5.710;2023-04-24T04:32:31;9.30;99.90
53844;DHT22;39744;53.314;5.710;2023-04-24T04:34:58;9.70;99.90
53844;DHT22;39744;53.314;5.710;2023-04-24T04:37:34;9.40;99.90
53844;DHT22;39744;53.314;5.710;2023-04-24T04:40:00;9.20;99.90
53844;DHT22;39744;53.314;5.710;2023-04-24T04:42:26;9.40;99.90
53844;DHT22;39744;53.314;5.710;2023-04-24T04:44:56;9.20;99.90
53844;DHT22;39744;53.314;5.710;2023-04-24T04:47:22;10.10;99.90
53844;DHT22;39744;53.314;5.710;2023-04-24T04:49:48;9.20;99.90
53844;DHT22;39744;53.314;5.710;2023-04-24T04:52:14;9.20;99.90
53844;DHT22;39744;53.314;5.710;2023-04-24T04:54:42;9.40;99.90
53844;DHT22;39744;53.314;5.710;2023-04-24T04:57:07;10.00;99.90
53844;DHT22;39744;53.314;5.710;2023-04-24T04:59:33;9.20;99.90
53844;DHT22;39744;53.314;5.710;2023-04-24T05:01:59;10.00;99.90
53844;DHT22;39744;53.314;5.710;2023-04-24T05:04:25;9.70;99.90
53844;DHT22;39744;53.314;5.710;2023-04-24T05:09:29;9.90;99.90
53844;DHT22;39744;53.314;5.710;2023-04-24T05:11:55;9.20;99.90
53844;DHT22;39744;53.314;5.710;2023-04-24T05:14:21;9.00;99.90
53844;DHT22;39744;53.314;5.710;2023-04-24T05:16:47;9.20;99.90
53844;DHT22;39744;53.314;5.710;2023-04-24T05:19:13;9.20;99.90
53844;DHT22;39744;53.314;5.710;2023-04-24T05:21:39;9.00;99.90
53844;DHT22;39744;53.314;5.710;2023-04-24T05:24:05;9.80;99.90
53844;DHT22;39744;53.314;5.710;2023-04-24T05:26:31;9.20;99.90
53844;DHT22;39744;53.314;5.710;2023-04-24T05:28:57;9.60;99.90
53844;DHT22;39744;53.314;5.710;2023-04-24T05:31:23;9.40;99.90
53844;DHT22;39744;53.314;5.710;2023-04-24T05:33:48;9.70;99.90
53844;DHT22;39744;53.314;5.710;2023-04-24T05:36:14;9.20;99.90
53844;DHT22;39744;53.314;5.710;2023-04-24T05:38:40;8.90;99.90
53844;DHT22;39744;53.314;5.710;2023-04-24T05:41:06;9.50;99.90
53844;DHT22;39744;53.314;5.710;2023-04-24T05:43:31;9.10;99.90
53844;DHT22;39744;53.314;5.710;2023-04-24T05:45:57;9.00;99.90
53844;DHT22;39744;53.314;5.710;2023-04-24T05:48:23;9.50;99.90
53844;DHT22;39744;53.314;5.710;2023-04-24T05:50:49;9.00;99.90
53844;DHT22;39744;53.314;5.710;2023-04-24T05:53:14;9.70;99.90
53844;DHT22;39744;53.314;5.710;2023-04-24T05:55:40;9.20;99.90
53844;DHT22;39744;53.314;5.710;2023-04-24T05:58:06;9.00;99.90
53844;DHT22;39744;53.314;5.710;2023-04-24T06:00:32;9.60;99.90
53844;DHT22;39744;53.314;5.710;2023-04-24T06:02:59;9.60;99.90
53844;DHT22;39744;53.314;5.710;2023-04-24T06:05:25;8.90;99.90
53844;DHT22;39744;53.314;5.710;2023-04-24T06:07:51;8.70;99.90
53844;DHT22;39744;53.314;5.710;2023-04-24T06:10:16;9.00;99.90
53844;DHT22;39744;53.314;5.710;2023-04-24T06:12:42;9.50;99.90
53844;DHT22;39744;53.314;5.710;2023-04-24T06:15:08;9.40;99.90
53844;DHT22;39744;53.314;5.710;2023-04-24T06:17:34;8.70;99.90
53844;DHT22;39744;53.314;5.710;2023-04-24T06:20:00;9.00;99.90
53844;DHT22;39744;53.314;5.710;2023-04-24T06:22:25;9.00;99.90
53844;DHT22;39744;53.314;5.710;2023-04-24T06:24:51;9.40;99.90
53844;DHT22;39744;53.314;5.710;2023-04-24T06:27:16;9.40;99.90
53844;DHT22;39744;53.314;5.710;2023-04-24T06:29:42;8.60;99.90
53844;DHT22;39744;53.314;5.710;2023-04-24T06:32:08;8.60;99.90
53844;DHT22;39744;53.314;5.710;2023-04-24T06:34:33;8.50;99.90
53844;DHT22;39744;53.314;5.710;2023-04-24T06:37:00;8.70;99.90
53844;DHT22;39744;53.314;5.710;2023-04-24T06:39:25;9.20;99.90
53844;DHT22;39744;53.314;5.710;2023-04-24T06:41:51;9.10;99.90
53844;DHT22;39744;53.314;5.710;2023-04-24T06:44:17;8.60;99.90
53844;DHT22;39744;53.314;5.710;2023-04-24T06:46:43;8.50;99.90
53844;DHT22;39744;53.314;5.710;2023-04-24T06:49:08;8.50;99.90
53844;DHT22;39744;53.314;5.710;2023-04-24T06:51:34;9.10;99.90
53844;DHT22;39744;53.314;5.710;2023-04-24T06:54:00;9.00;99.90
53844;DHT22;39744;53.314;5.710;2023-04-24T06:56:26;9.20;99.90
53844;DHT22;39744;53.314;5.710;2023-04-24T06:58:52;9.10;99.90
53844;DHT22;39744;53.314;5.710;2023-04-24T07:01:17;8.50;99.90
53844;DHT22;39744;53.314;5.710;2023-04-24T07:03:43;8.90;99.90
53844;DHT22;39744;53.314;5.710;2023-04-24T07:06:09;8.80;99.90
53844;DHT22;39744;53.314;5.710;2023-04-24T07:08:36;8.90;99.90
53844;DHT22;39744;53.314;5.710;2023-04-24T07:11:02;8.50;99.90
53844;DHT22;39744;53.314;5.710;2023-04-24T07:13:28;9.00;99.90
53844;DHT22;39744;53.314;5.710;2023-04-24T07:15:54;8.50;99.90
53844;DHT22;39744;53.314;5.710;2023-04-24T07:18:21;9.00;99.90
53844;DHT22;39744;53.314;5.710;2023-04-24T07:20:47;8.90;99.90
53844;DHT22;39744;53.314;5.710;2023-04-24T07:23:15;8.60;99.90
53844;DHT22;39744;53.314;5.710;2023-04-24T07:25:41;8.70;99.90
53844;DHT22;39744;53.314;5.710;2023-04-24T07:28:07;9.10;99.90
53844;DHT22;39744;53.314;5.710;2023-04-24T07:30:32;9.00;99.90
53844;DHT22;39744;53.314;5.710;2023-04-24T07:32:58;9.20;99.90
53844;DHT22;39744;53.314;5.710;2023-04-24T07:35:24;8.70;99.90
53844;DHT22;39744;53.314;5.710;2023-04-24T07:37:52;9.00;99.90
53844;DHT22;39744;53.314;5.710;2023-04-24T07:40:18;9.10;99.90
53844;DHT22;39744;53.314;5.710;2023-04-24T07:42:44;8.90;99.90
53844;DHT22;39744;53.314;5.710;2023-04-24T07:45:10;8.90;99.90
53844;DHT22;39744;53.314;5.710;2023-04-24T07:47:35;9.10;99.90
53844;DHT22;39744;53.314;5.710;2023-04-24T07:50:03;9.10;99.90
53844;DHT22;39744;53.314;5.710;2023-04-24T07:52:29;9.20;99.90
53844;DHT22;39744;53.314;5.710;2023-04-24T07:54:55;8.90;99.90
53844;DHT22;39744;53.314;5.710;2023-04-24T07:57:24;9.20;99.90
53844;DHT22;39744;53.314;5.710;2023-04-24T07:59:50;8.90;99.90
53844;DHT22;39744;53.314;5.710;2023-04-24T08:02:16;8.90;99.90
53844;DHT22;39744;53.314;5.710;2023-04-24T08:04:42;9.10;99.90
53844;DHT22;39744;53.314;5.710;2023-04-24T08:07:07;9.00;99.90
53844;DHT22;39744;53.314;5.710;2023-04-24T08:09:33;9.20;99.90
53844;DHT22;39744;53.314;5.710;2023-04-24T08:11:59;9.10;99.90
53844;DHT22;39744;53.314;5.710;2023-04-24T08:14:25;9.00;99.90
53844;DHT22;39744;53.314;5.710;2023-04-24T08:16:52;9.10;99.90
53844;DHT22;39744;53.314;5.710;2023-04-24T08:19:17;9.10;99.90
53844;DHT22;39744;53.314;5.710;2023-04-24T08:21:43;9.00;99.90
53844;DHT22;39744;53.314;5.710;2023-04-24T08:24:09;9.10;99.90
53844;DHT22;39744;53.314;5.710;2023-04-24T08:26:34;9.00;99.90
53844;DHT22;39744;53.314;5.710;2023-04-24T08:29:00;9.10;99.90
53844;DHT22;39744;53.314;5.710;2023-04-24T08:31:26;9.20;99.90
53844;DHT22;39744;53.314;5.710;2023-04-24T08:33:52;9.20;99.90
53844;DHT22;39744;53.314;5.710;2023-04-24T08:36:18;9.30;99.90
53844;DHT22;39744;53.314;5.710;2023-04-24T08:38:43;9.30;99.90
53844;DHT22;39744;53.314;5.710;2023-04-24T08:41:09;9.40;99.90
53844;DHT22;39744;53.314;5.710;2023-04-24T08:43:35;9.40;99.90
53844;DHT22;39744;53.314;5.710;2023-04-24T08:46:04;9.50;99.90
53844;DHT22;39744;53.314;5.710;2023-04-24T08:48:30;9.40;99.90
53844;DHT22;39744;53.314;5.710;2023-04-24T08:50:57;9.50;99.90
53844;DHT22;39744;53.314;5.710;2023-04-24T08:53:24;9.60;99.90
53844;DHT22;39744;53.314;5.710;2023-04-24T08:55:51;9.60;99.90
53844;DHT22;39744;53.314;5.710;2023-04-24T08:58:19;9.70;99.90
53844;DHT22;39744;53.314;5.710;2023-04-24T09:00:44;9.80;99.90
53844;DHT22;39744;53.314;5.710;2023-04-24T09:03:13;9.90;99.90
53844;DHT22;39744;53.314;5.710;2023-04-24T09:05:41;9.90;99.90
53844;DHT22;39744;53.314;5.710;2023-04-24T09:08:11;10.00;99.90
53844;DHT22;39744;53.314;5.710;2023-04-24T09:10:39;10.00;99.90
53844;DHT22;39744;53.314;5.710;2023-04-24T09:13:05;10.10;99.90
53844;DHT22;39744;53.314;5.710;2023-04-24T09:15:31;10.20;99.90
53844;DHT22;39744;53.314;5.710;2023-04-24T09:17:57;10.30;99.90
53844;DHT22;39744;53.314;5.710;2023-04-24T09:20:23;10.40;99.90
53844;DHT22;39744;53.314;5.710;2023-04-24T09:22:54;10.60;99.90
53844;DHT22;39744;53.314;5.710;2023-04-24T09:25:20;10.70;99.90
53844;DHT22;39744;53.314;5.710;2023-04-24T09:27:46;10.60;99.90
53844;DHT22;39744;53.314;5.710;2023-04-24T09:30:13;10.70;99.90
53844;DHT22;39744;53.314;5.710;2023-04-24T09:32:39;10.60;99.90
53844;DHT22;39744;53.314;5.710;2023-04-24T09:35:10;10.40;99.90
53844;DHT22;39744;53.314;5.710;2023-04-24T09:37:45;10.40;99.90
53844;DHT22;39744;53.314;5.710;2023-04-24T09:40:19;10.50;99.90
53844;DHT22;39744;53.314;5.710;2023-04-24T09:42:53;10.50;99.90
53844;DHT22;39744;53.314;5.710;2023-04-24T09:45:20;10.50;99.90
53844;DHT22;39744;53.314;5.710;2023-04-24T09:47:46;10.40;99.90
53844;DHT22;39744;53.314;5.710;2023-04-24T09:50:14;10.40;99.90
53844;DHT22;39744;53.314;5.710;2023-04-24T09:52:44;10.50;99.90
53844;DHT22;39744;53.314;5.710;2023-04-24T09:55:19;10.40;99.90
53844;DHT22;39744;53.314;5.710;2023-04-24T09:57:54;10.40;99.90
53844;DHT22;39744;53.314;5.710;2023-04-24T10:00:32;10.20;99.90
53844;DHT22;39744;53.314;5.710;2023-04-24T10:03:00;10.40;99.90
53844;DHT22;39744;53.314;5.710;2023-04-24T10:05:36;10.30;99.90
53844;DHT22;39744;53.314;5.710;2023-04-24T10:08:03;10.30;99.90
53844;DHT22;39744;53.314;5.710;2023-04-24T10:10:33;10.30;99.90
53844;DHT22;39744;53.314;5.710;2023-04-24T10:13:00;10.20;99.90
53844;DHT22;39744;53.314;5.710;2023-04-24T10:15:27;10.00;99.90
53844;DHT22;39744;53.314;5.710;2023-04-24T10:17:53;10.00;99.90
53844;DHT22;39744;53.314;5.710;2023-04-24T10:20:24;10.00;99.90
53844;DHT22;39744;53.314;5.710;2023-04-24T10:22:52;10.00;99.90
53844;DHT22;39744;53.314;5.710;2023-04-24T10:25:23;10.00;99.90
53844;DHT22;39744;53.314;5.710;2023-04-24T10:27:51;9.90;99.90
53844;DHT22;39744;53.314;5.710;2023-04-24T10:30:18;9.90;99.90
53844;DHT22;39744;53.314;5.710;2023-04-24T10:32:44;10.00;99.90
53844;DHT22;39744;53.314;5.710;2023-04-24T10:35:12;10.20;99.90
53844;DHT22;39744;53.314;5.710;2023-04-24T10:37:40;10.20;99.90
53844;DHT22;39744;53.314;5.710;2023-04-24T10:40:09;10.00;99.90
53844;DHT22;39744;53.314;5.710;2023-04-24T10:42:35;10.00;99.90
53844;DHT22;39744;53.314;5.710;2023-04-24T10:45:06;9.80;99.90
53844;DHT22;39744;53.314;5.710;2023-04-24T10:47:40;9.70;99.90
53844;DHT22;39744;53.314;5.710;2023-04-24T10:50:10;9.70;99.90
53844;DHT22;39744;53.314;5.710;2023-04-24T10:52:46;9.40;99.90
53844;DHT22;39744;53.314;5.710;2023-04-24T10:55:13;9.30;99.90
53844;DHT22;39744;53.314;5.710;2023-04-24T10:57:39;9.10;99.90
53844;DHT22;39744;53.314;5.710;2023-04-24T11:00:18;9.20;99.90
53844;DHT22;39744;53.314;5.710;2023-04-24T11:02:46;9.30;99.90
53844;DHT22;39744;53.314;5.710;2023-04-24T11:05:19;9.30;99.90
53844;DHT22;39744;53.314;5.710;2023-04-24T11:08:14;9.30;99.90
53844;DHT22;39744;53.314;5.710;2023-04-24T11:10:45;9.20;99.90
53844;DHT22;39744;53.314;5.710;2023-04-24T11:13:16;9.20;99.90
53844;DHT22;39744;53.314;5.710;2023-04-24T11:15:42;9.10;99.90
53844;DHT22;39744;53.314;5.710;2023-04-24T11:18:13;9.20;99.90
53844;DHT22;39744;53.314;5.710;2023-04-24T11:20:44;9.20;99.90
53844;DHT22;39744;53.314;5.710;2023-04-24T11:23:12;9.20;99.90
53844;DHT22;39744;53.314;5.710;2023-04-24T11:25:38;9.30;99.90
53844;DHT22;39744;53.314;5.710;2023-04-24T11:28:04;9.20;99.90
53844;DHT22;39744;53.314;5.710;2023-04-24T11:30:32;9.30;99.90
53844;DHT22;39744;53.314;5.710;2023-04-24T11:33:03;9.30;99.90
53844;DHT22;39744;53.314;5.710;2023-04-24T11:35:29;9.30;99.90
53844;DHT22;39744;53.314;5.710;2023-04-24T11:37:56;9.50;99.90
53844;DHT22;39744;53.314;5.710;2023-04-24T11:40:22;9.40;99.90
53844;DHT22;39744;53.314;5.710;2023-04-24T11:42:50;9.40;99.90
53844;DHT22;39744;53.314;5.710;2023-04-24T11:45:18;9.40;99.90
53844;DHT22;39744;53.314;5.710;2023-04-24T11:47:44;9.60;99.90
53844;DHT22;39744;53.314;5.710;2023-04-24T11:50:28;9.60;99.90
53844;DHT22;39744;53.314;5.710;2023-04-24T11:52:55;9.60;99.90
53844;DHT22;39744;53.314;5.710;2023-04-24T11:57:49;9.70;99.90
53844;DHT22;39744;53.314;5.710;2023-04-24T12:00:29;10.00;99.90
53844;DHT22;39744;53.314;5.710;2023-04-24T12:03:09;10.10;99.90
53844;DHT22;39744;53.314;5.710;2023-04-24T12:05:35;10.20;99.90
53844;DHT22;39744;53.314;5.710;2023-04-24T12:08:01;9.90;99.90
53844;DHT22;39744;53.314;5.710;2023-04-24T12:10:28;9.90;99.90
53844;DHT22;39744;53.314;5.710;2023-04-24T12:12:56;9.80;99.90
53844;DHT22;39744;53.314;5.710;2023-04-24T12:15:22;10.10;99.90
53844;DHT22;39744;53.314;5.710;2023-04-24T12:17:50;10.20;99.90
53844;DHT22;39744;53.314;5.710;2023-04-24T12:20:16;10.20;99.90
53844;DHT22;39744;53.314;5.710;2023-04-24T12:22:51;10.10;99.90
53844;DHT22;39744;53.314;5.710;2023-04-24T12:25:19;10.00;99.90
53844;DHT22;39744;53.314;5.710;2023-04-24T12:27:46;10.00;99.90
53844;DHT22;39744;53.314;5.710;2023-04-24T12:30:16;10.00;99.90
53844;DHT22;39744;53.314;5.710;2023-04-24T12:32:46;9.80;99.90
53844;DHT22;39744;53.314;5.710;2023-04-24T12:35:14;10.00;99.90
53844;DHT22;39744;53.314;5.710;2023-04-24T12:37:44;9.70;99.90
53844;DHT22;39744;53.314;5.710;2023-04-24T12:40:10;9.80;99.90
53844;DHT22;39744;53.314;5.710;2023-04-24T12:42:46;9.80;99.90
53844;DHT22;39744;53.314;5.710;2023-04-24T12:45:13;9.70;99.90
53844;DHT22;39744;53.314;5.710;2023-04-24T12:47:39;9.70;99.90
53844;DHT22;39744;53.314;5.710;2023-04-24T12:50:07;9.70;99.90
53844;DHT22;39744;53.314;5.710;2023-04-24T12:52:33;9.60;99.90
53844;DHT22;39744;53.314;5.710;2023-04-24T12:55:00;9.30;99.90
53844;DHT22;39744;53.314;5.710;2023-04-24T12:57:28;9.20;99.90
53844;DHT22;39744;53.314;5.710;2023-04-24T12:59:58;9.00;99.90
53844;DHT22;39744;53.314;5.710;2023-04-24T13:02:25;8.90;99.90
53844;DHT22;39744;53.314;5.710;2023-04-24T13:04:52;9.00;99.90
53844;DHT22;39744;53.314;5.710;2023-04-24T13:07:18;9.00;99.90
53844;DHT22;39744;53.314;5.710;2023-04-24T13:09:44;9.30;99.90
53844;DHT22;39744;53.314;5.710;2023-04-24T13:12:10;9.30;99.90
53844;DHT22;39744;53.314;5.710;2023-04-24T13:14:37;9.10;99.90
53844;DHT22;39744;53.314;5.710;2023-04-24T13:17:03;9.00;99.90
53844;DHT22;39744;53.314;5.710;2023-04-24T13:19:29;9.00;99.90
53844;DHT22;39744;53.314;5.710;2023-04-24T13:21:56;9.20;99.90
53844;DHT22;39744;53.314;5.710;2023-04-24T13:24:23;9.20;99.90
53844;DHT22;39744;53.314;5.710;2023-04-24T13:26:54;9.20;99.90
53844;DHT22;39744;53.314;5.710;2023-04-24T13:29:22;9.20;99.90
53844;DHT22;39744;53.314;5.710;2023-04-24T13:31:49;9.10;99.90
53844;DHT22;39744;53.314;5.710;2023-04-24T13:34:15;9.10;99.90
53844;DHT22;39744;53.314;5.710;2023-04-24T13:36:40;9.20;99.90
53844;DHT22;39744;53.314;5.710;2023-04-24T13:39:06;9.30;99.90
53844;DHT22;39744;53.314;5.710;2023-04-24T13:41:35;9.30;99.90
53844;DHT22;39744;53.314;5.710;2023-04-24T13:44:02;9.50;99.90
53844;DHT22;39744;53.314;5.710;2023-04-24T13:46:28;9.40;99.90
53844;DHT22;39744;53.314;5.710;2023-04-24T13:48:53;9.30;99.90
53844;DHT22;39744;53.314;5.710;2023-04-24T13:51:19;9.20;99.90
53844;DHT22;39744;53.314;5.710;2023-04-24T13:53:44;9.20;99.90
53844;DHT22;39744;53.314;5.710;2023-04-24T13:56:10;9.20;99.90
53844;DHT22;39744;53.314;5.710;2023-04-24T13:58:37;9.20;99.90
53844;DHT22;39744;53.314;5.710;2023-04-24T14:01:03;9.20;99.90
53844;DHT22;39744;53.314;5.710;2023-04-24T14:03:29;9.30;99.90
53844;DHT22;39744;53.314;5.710;2023-04-24T14:05:55;9.50;99.90
53844;DHT22;39744;53.314;5.710;2023-04-24T14:08:21;9.50;99.90
53844;DHT22;39744;53.314;5.710;2023-04-24T14:10:47;9.50;99.90
53844;DHT22;39744;53.314;5.710;2023-04-24T14:13:13;9.50;99.90
53844;DHT22;39744;53.314;5.710;2023-04-24T14:15:38;9.30;99.90
53844;DHT22;39744;53.314;5.710;2023-04-24T14:18:05;9.20;99.90
53844;DHT22;39744;53.314;5.710;2023-04-24T14:20:31;9.00;99.90
53844;DHT22;39744;53.314;5.710;2023-04-24T14:22:56;9.00;99.90
53844;DHT22;39744;53.314;5.710;2023-04-24T14:25:24;9.00;99.90
53844;DHT22;39744;53.314;5.710;2023-04-24T14:27:50;9.10;99.90
53844;DHT22;39744;53.314;5.710;2023-04-24T14:30:16;9.10;99.90
53844;DHT22;39744;53.314;5.710;2023-04-24T14:32:42;9.20;99.90
53844;DHT22;39744;53.314;5.710;2023-04-24T14:35:07;9.30;99.90
53844;DHT22;39744;53.314;5.710;2023-04-24T14:37:33;9.20;99.90
53844;DHT22;39744;53.314;5.710;2023-04-24T14:39:59;9.10;99.90
53844;DHT22;39744;53.314;5.710;2023-04-24T14:42:25;9.30;99.90
53844;DHT22;39744;53.314;5.710;2023-04-24T14:44:51;9.20;99.90
53844;DHT22;39744;53.314;5.710;2023-04-24T14:47:16;9.10;99.90
53844;DHT22;39744;53.314;5.710;2023-04-24T14:49:47;9.10;99.90
53844;DHT22;39744;53.314;5.710;2023-04-24T14:52:13;8.90;99.90
53844;DHT22;39744;53.314;5.710;2023-04-24T14:54:39;8.80;99.90
53844;DHT22;39744;53.314;5.710;2023-04-24T14:57:04;8.70;99.90
53844;DHT22;39744;53.314;5.710;2023-04-24T14:59:31;8.60;99.90
53844;DHT22;39744;53.314;5.710;2023-04-24T15:01:57;8.60;99.90
53844;DHT22;39744;53.314;5.710;2023-04-24T15:04:24;8.60;99.90
53844;DHT22;39744;53.314;5.710;2023-04-24T15:06:51;8.60;99.90
53844;DHT22;39744;53.314;5.710;2023-04-24T15:09:18;8.70;99.90
53844;DHT22;39744;53.314;5.710;2023-04-24T15:11:43;8.70;99.90
53844;DHT22;39744;53.314;5.710;2023-04-24T15:14:09;8.70;99.90
53844;DHT22;39744;53.314;5.710;2023-04-24T15:16:35;8.70;99.90
53844;DHT22;39744;53.314;5.710;2023-04-24T15:19:00;8.60;99.90
53844;DHT22;39744;53.314;5.710;2023-04-24T15:21:26;8.60;99.90
53844;DHT22;39744;53.314;5.710;2023-04-24T15:23:52;8.70;99.90
53844;DHT22;39744;53.314;5.710;2023-04-24T15:26:18;8.60;99.90
53844;DHT22;39744;53.314;5.710;2023-04-24T15:28:44;8.70;99.90
53844;DHT22;39744;53.314;5.710;2023-04-24T15:31:12;8.70;99.90
53844;DHT22;39744;53.314;5.710;2023-04-24T15:33:38;8.50;99.90
53844;DHT22;39744;53.314;5.710;2023-04-24T15:36:03;8.60;99.90
53844;DHT22;39744;53.314;5.710;2023-04-24T15:38:29;8.50;99.90
53844;DHT22;39744;53.314;5.710;2023-04-24T15:40:55;8.50;99.90
53844;DHT22;39744;53.314;5.710;2023-04-24T15:43:21;8.50;99.90
53844;DHT22;39744;53.314;5.710;2023-04-24T15:45:49;8.50;99.90